sensor_id;sensor_type;location;lat;lon;timestamp;P1;durP1;ratioP1;P2;durP2;ratioP2
27209;SDS011;14721;42.668;23.386;2023-03-01T00:00:27;4.07;;;2.00;;
27209;SDS011;14721;42.668;23.386;2023-03-01T00:02:52;5.73;;;2.40;;
27209;SDS011;14721;42.668;23.386;2023-03-01T00:05:18;6.57;;;3.17;;
27209;SDS011;14721;42.668;23.386;2023-03-01T00:07:43;3.77;;;1.97;;
27209;SDS011;14721;42.668;23.386;2023-03-01T00:10:09;3.90;;;2.10;;
27209;SDS011;14721;42.668;23.386;2023-03-01T00:12:35;2.93;;;1.80;;
27209;SDS011;14721;42.668;23.386;2023-03-01T00:15:01;4.43;;;1.90;;
27209;SDS011;14721;42.668;23.386;2023-03-01T00:17:27;2.80;;;1.53;;
27209;SDS011;14721;42.668;23.386;2023-03-01T00:19:52;2.90;;;1.50;;
27209;SDS011;14721;42.668;23.386;2023-03-01T00:22:18;2.60;;;1.77;;
27209;SDS011;14721;42.668;23.386;2023-03-01T00:24:43;2.93;;;1.70;;
27209;SDS011;14721;42.668;23.386;2023-03-01T00:27:09;3.30;;;2.10;;
27209;SDS011;14721;42.668;23.386;2023-03-01T00:29:34;5.00;;;1.80;;
27209;SDS011;14721;42.668;23.386;2023-03-01T00:32:00;4.80;;;2.17;;
27209;SDS011;14721;42.668;23.386;2023-03-01T00:34:25;3.60;;;1.70;;
27209;SDS011;14721;42.668;23.386;2023-03-01T00:36:51;5.23;;;1.70;;
27209;SDS011;14721;42.668;23.386;2023-03-01T00:39:16;2.03;;;1.30;;
27209;SDS011;14721;42.668;23.386;2023-03-01T00:41:42;3.00;;;1.73;;
27209;SDS011;14721;42.668;23.386;2023-03-01T00:44:08;4.53;;;1.40;;
27209;SDS011;14721;42.668;23.386;2023-03-01T00:46:34;2.33;;;1.30;;
27209;SDS011;14721;42.668;23.386;2023-03-01T00:48:59;1.63;;;1.00;;
27209;SDS011;14721;42.668;23.386;2023-03-01T00:51:27;2.83;;;1.50;;
27209;SDS011;14721;42.668;23.386;2023-03-01T00:53:54;3.53;;;1.70;;
27209;SDS011;14721;42.668;23.386;2023-03-01T00:56:22;3.80;;;1.60;;
27209;SDS011;14721;42.668;23.386;2023-03-01T00:58:48;4.63;;;2.13;;
27209;SDS011;14721;42.668;23.386;2023-03-01T01:06:30;3.10;;;1.30;;
27209;SDS011;14721;42.668;23.386;2023-03-01T01:08:58;4.70;;;1.73;;
27209;SDS011;14721;42.668;23.386;2023-03-01T01:11:26;3.33;;;1.50;;
27209;SDS011;14721;42.668;23.386;2023-03-01T01:13:54;2.53;;;1.37;;
27209;SDS011;14721;42.668;23.386;2023-03-01T01:16:20;2.53;;;1.60;;
27209;SDS011;14721;42.668;23.386;2023-03-01T01:18:46;2.67;;;1.60;;
27209;SDS011;14721;42.668;23.386;2023-03-01T01:21:13;2.97;;;1.57;;
27209;SDS011;14721;42.668;23.386;2023-03-01T01:23:40;3.53;;;1.83;;
27209;SDS011;14721;42.668;23.386;2023-03-01T01:26:08;2.10;;;1.20;;
27209;SDS011;14721;42.668;23.386;2023-03-01T01:28:36;3.70;;;1.20;;
27209;SDS011;14721;42.668;23.386;2023-03-01T01:31:02;3.30;;;1.53;;
27209;SDS011;14721;42.668;23.386;2023-03-01T01:33:28;1.97;;;1.40;;
27209;SDS011;14721;42.668;23.386;2023-03-01T01:35:53;2.43;;;1.40;;
27209;SDS011;14721;42.668;23.386;2023-03-01T01:38:19;1.70;;;0.70;;
27209;SDS011;14721;42.668;23.386;2023-03-01T01:40:47;2.17;;;1.10;;
27209;SDS011;14721;42.668;23.386;2023-03-01T01:43:22;3.43;;;1.30;;
27209;SDS011;14721;42.668;23.386;2023-03-01T01:45:52;2.70;;;1.40;;
27209;SDS011;14721;42.668;23.386;2023-03-01T01:48:22;2.13;;;1.23;;
27209;SDS011;14721;42.668;23.386;2023-03-01T01:51:06;2.30;;;1.17;;
27209;SDS011;14721;42.668;23.386;2023-03-01T01:53:36;1.40;;;1.00;;
27209;SDS011;14721;42.668;23.386;2023-03-01T01:56:03;2.43;;;1.00;;
27209;SDS011;14721;42.668;23.386;2023-03-01T01:58:31;2.87;;;1.33;;
27209;SDS011;14721;42.668;23.386;2023-03-01T02:00:57;0.80;;;0.60;;
27209;SDS011;14721;42.668;23.386;2023-03-01T02:03:25;1.97;;;1.13;;
27209;SDS011;14721;42.668;23.386;2023-03-01T02:08:29;2.53;;;1.23;;
27209;SDS011;14721;42.668;23.386;2023-03-01T02:10:57;2.37;;;1.17;;
27209;SDS011;14721;42.668;23.386;2023-03-01T02:13:25;2.70;;;1.40;;
27209;SDS011;14721;42.668;23.386;2023-03-01T02:15:50;2.23;;;1.60;;
27209;SDS011;14721;42.668;23.386;2023-03-01T02:18:17;2.90;;;1.57;;
27209;SDS011;14721;42.668;23.386;2023-03-01T02:20:51;3.00;;;2.00;;
27209;SDS011;14721;42.668;23.386;2023-03-01T02:23:33;2.07;;;1.60;;
27209;SDS011;14721;42.668;23.386;2023-03-01T02:26:04;2.33;;;1.17;;
27209;SDS011;14721;42.668;23.386;2023-03-01T02:28:51;3.23;;;1.73;;
27209;SDS011;14721;42.668;23.386;2023-03-01T02:31:17;2.13;;;1.30;;
27209;SDS011;14721;42.668;23.386;2023-03-01T02:34:04;2.90;;;1.67;;
27209;SDS011;14721;42.668;23.386;2023-03-01T02:36:38;2.80;;;1.63;;
27209;SDS011;14721;42.668;23.386;2023-03-01T02:39:12;2.23;;;1.37;;
27209;SDS011;14721;42.668;23.386;2023-03-01T02:41:46;3.93;;;1.20;;
27209;SDS011;14721;42.668;23.386;2023-03-01T02:44:15;3.67;;;1.87;;
27209;SDS011;14721;42.668;23.386;2023-03-01T02:46:43;2.93;;;1.20;;
27209;SDS011;14721;42.668;23.386;2023-03-01T02:49:20;2.20;;;1.30;;
27209;SDS011;14721;42.668;23.386;2023-03-01T02:57:32;1.57;;;0.90;;
27209;SDS011;14721;42.668;23.386;2023-03-01T03:00:05;1.50;;;1.00;;
27209;SDS011;14721;42.668;23.386;2023-03-01T03:02:47;3.30;;;1.37;;
27209;SDS011;14721;42.668;23.386;2023-03-01T03:05:16;2.17;;;1.50;;
27209;SDS011;14721;42.668;23.386;2023-03-01T03:07:47;2.07;;;1.10;;
27209;SDS011;14721;42.668;23.386;2023-03-01T03:10:15;2.57;;;1.50;;
27209;SDS011;14721;42.668;23.386;2023-03-01T03:12:44;2.57;;;1.43;;
27209;SDS011;14721;42.668;23.386;2023-03-01T03:15:18;4.23;;;1.53;;
27209;SDS011;14721;42.668;23.386;2023-03-01T03:17:45;3.03;;;2.07;;
27209;SDS011;14721;42.668;23.386;2023-03-01T03:20:13;3.20;;;1.33;;
27209;SDS011;14721;42.668;23.386;2023-03-01T03:22:44;3.20;;;1.87;;
27209;SDS011;14721;42.668;23.386;2023-03-01T03:25:11;1.83;;;1.47;;
27209;SDS011;14721;42.668;23.386;2023-03-01T03:27:37;3.40;;;1.40;;
27209;SDS011;14721;42.668;23.386;2023-03-01T03:30:05;2.30;;;1.47;;
27209;SDS011;14721;42.668;23.386;2023-03-01T03:32:35;1.70;;;1.40;;
27209;SDS011;14721;42.668;23.386;2023-03-01T03:35:02;2.23;;;1.50;;
27209;SDS011;14721;42.668;23.386;2023-03-01T03:37:37;2.90;;;2.27;;
27209;SDS011;14721;42.668;23.386;2023-03-01T03:40:24;3.63;;;2.10;;
27209;SDS011;14721;42.668;23.386;2023-03-01T03:42:51;2.27;;;1.40;;
27209;SDS011;14721;42.668;23.386;2023-03-01T03:45:17;3.23;;;1.73;;
27209;SDS011;14721;42.668;23.386;2023-03-01T03:47:43;2.70;;;1.77;;
27209;SDS011;14721;42.668;23.386;2023-03-01T03:50:11;3.67;;;1.90;;
27209;SDS011;14721;42.668;23.386;2023-03-01T03:52:39;1.77;;;1.20;;
27209;SDS011;14721;42.668;23.386;2023-03-01T03:55:06;3.73;;;1.83;;
27209;SDS011;14721;42.668;23.386;2023-03-01T03:57:41;2.27;;;1.63;;
27209;SDS011;14721;42.668;23.386;2023-03-01T04:00:09;2.87;;;1.80;;
27209;SDS011;14721;42.668;23.386;2023-03-01T04:02:40;2.27;;;1.40;;
27209;SDS011;14721;42.668;23.386;2023-03-01T04:05:07;2.63;;;1.80;;
27209;SDS011;14721;42.668;23.386;2023-03-01T04:07:37;1.37;;;1.00;;
27209;SDS011;14721;42.668;23.386;2023-03-01T04:10:04;2.07;;;1.13;;
27209;SDS011;14721;42.668;23.386;2023-03-01T04:12:32;2.07;;;1.30;;
27209;SDS011;14721;42.668;23.386;2023-03-01T04:15:00;1.53;;;0.83;;
27209;SDS011;14721;42.668;23.386;2023-03-01T04:17:26;2.60;;;1.10;;
27209;SDS011;14721;42.668;23.386;2023-03-01T04:19:52;2.57;;;1.30;;
27209;SDS011;14721;42.668;23.386;2023-03-01T04:22:18;3.97;;;1.83;;
27209;SDS011;14721;42.668;23.386;2023-03-01T04:24:44;2.40;;;1.50;;
27209;SDS011;14721;42.668;23.386;2023-03-01T04:27:11;3.47;;;1.40;;
27209;SDS011;14721;42.668;23.386;2023-03-01T04:29:37;4.03;;;1.33;;
27209;SDS011;14721;42.668;23.386;2023-03-01T04:32:03;2.10;;;1.10;;
27209;SDS011;14721;42.668;23.386;2023-03-01T04:34:29;3.73;;;1.67;;
27209;SDS011;14721;42.668;23.386;2023-03-01T04:36:55;3.07;;;1.27;;
27209;SDS011;14721;42.668;23.386;2023-03-01T04:39:20;3.70;;;1.40;;
27209;SDS011;14721;42.668;23.386;2023-03-01T04:41:46;4.17;;;1.90;;
27209;SDS011;14721;42.668;23.386;2023-03-01T04:44:12;3.27;;;1.70;;
27209;SDS011;14721;42.668;23.386;2023-03-01T04:46:38;4.53;;;2.20;;
27209;SDS011;14721;42.668;23.386;2023-03-01T04:49:04;4.00;;;1.97;;
27209;SDS011;14721;42.668;23.386;2023-03-01T04:51:30;3.80;;;2.10;;
27209;SDS011;14721;42.668;23.386;2023-03-01T04:53:57;3.13;;;1.70;;
27209;SDS011;14721;42.668;23.386;2023-03-01T04:56:25;3.40;;;1.50;;
27209;SDS011;14721;42.668;23.386;2023-03-01T04:58:53;6.50;;;2.40;;
27209;SDS011;14721;42.668;23.386;2023-03-01T05:01:19;3.00;;;1.63;;
27209;SDS011;14721;42.668;23.386;2023-03-01T05:03:47;3.83;;;1.97;;
27209;SDS011;14721;42.668;23.386;2023-03-01T05:06:14;4.07;;;2.23;;
27209;SDS011;14721;42.668;23.386;2023-03-01T05:08:40;3.37;;;1.93;;
27209;SDS011;14721;42.668;23.386;2023-03-01T05:11:07;5.67;;;2.27;;
27209;SDS011;14721;42.668;23.386;2023-03-01T05:13:34;5.30;;;2.00;;
27209;SDS011;14721;42.668;23.386;2023-03-01T05:16:02;5.93;;;2.27;;
27209;SDS011;14721;42.668;23.386;2023-03-01T05:18:30;4.93;;;1.73;;
27209;SDS011;14721;42.668;23.386;2023-03-01T05:21:08;3.77;;;1.93;;
27209;SDS011;14721;42.668;23.386;2023-03-01T05:23:40;3.37;;;1.90;;
27209;SDS011;14721;42.668;23.386;2023-03-01T05:26:06;4.33;;;2.33;;
27209;SDS011;14721;42.668;23.386;2023-03-01T05:28:36;3.97;;;1.50;;
27209;SDS011;14721;42.668;23.386;2023-03-01T05:31:03;3.70;;;1.60;;
27209;SDS011;14721;42.668;23.386;2023-03-01T05:33:52;2.50;;;1.33;;
27209;SDS011;14721;42.668;23.386;2023-03-01T05:36:19;3.37;;;1.63;;
27209;SDS011;14721;42.668;23.386;2023-03-01T05:38:48;3.63;;;2.23;;
27209;SDS011;14721;42.668;23.386;2023-03-01T05:41:20;3.63;;;2.03;;
27209;SDS011;14721;42.668;23.386;2023-03-01T05:43:46;5.80;;;2.33;;
27209;SDS011;14721;42.668;23.386;2023-03-01T05:46:17;2.83;;;1.07;;
27209;SDS011;14721;42.668;23.386;2023-03-01T05:48:46;4.33;;;1.63;;
27209;SDS011;14721;42.668;23.386;2023-03-01T05:51:13;6.40;;;2.10;;
27209;SDS011;14721;42.668;23.386;2023-03-01T05:53:39;3.67;;;1.93;;
27209;SDS011;14721;42.668;23.386;2023-03-01T05:56:04;7.30;;;2.17;;
27209;SDS011;14721;42.668;23.386;2023-03-01T05:58:31;7.43;;;1.90;;
27209;SDS011;14721;42.668;23.386;2023-03-01T06:00:57;3.73;;;1.73;;
27209;SDS011;14721;42.668;23.386;2023-03-01T06:03:22;4.10;;;2.37;;
27209;SDS011;14721;42.668;23.386;2023-03-01T06:05:56;3.53;;;2.07;;
27209;SDS011;14721;42.668;23.386;2023-03-01T06:08:25;6.50;;;2.50;;
27209;SDS011;14721;42.668;23.386;2023-03-01T06:10:52;7.97;;;2.50;;
27209;SDS011;14721;42.668;23.386;2023-03-01T06:13:21;7.07;;;2.33;;
27209;SDS011;14721;42.668;23.386;2023-03-01T06:15:50;5.43;;;2.33;;
27209;SDS011;14721;42.668;23.386;2023-03-01T06:18:21;5.90;;;2.17;;
27209;SDS011;14721;42.668;23.386;2023-03-01T06:20:52;5.37;;;1.80;;
27209;SDS011;14721;42.668;23.386;2023-03-01T06:23:19;3.23;;;2.20;;
27209;SDS011;14721;42.668;23.386;2023-03-01T06:25:45;4.00;;;2.03;;
27209;SDS011;14721;42.668;23.386;2023-03-01T06:28:10;6.87;;;2.50;;
27209;SDS011;14721;42.668;23.386;2023-03-01T06:30:36;4.33;;;2.03;;
27209;SDS011;14721;42.668;23.386;2023-03-01T06:33:05;7.00;;;2.93;;
27209;SDS011;14721;42.668;23.386;2023-03-01T06:35:37;3.60;;;2.10;;
27209;SDS011;14721;42.668;23.386;2023-03-01T06:38:06;5.93;;;2.43;;
27209;SDS011;14721;42.668;23.386;2023-03-01T06:40:34;6.83;;;2.53;;
27209;SDS011;14721;42.668;23.386;2023-03-01T06:43:07;6.37;;;2.93;;
27209;SDS011;14721;42.668;23.386;2023-03-01T06:45:36;4.23;;;2.70;;
27209;SDS011;14721;42.668;23.386;2023-03-01T06:48:03;8.83;;;2.83;;
27209;SDS011;14721;42.668;23.386;2023-03-01T06:50:31;5.67;;;2.87;;
27209;SDS011;14721;42.668;23.386;2023-03-01T06:53:02;6.10;;;2.40;;
27209;SDS011;14721;42.668;23.386;2023-03-01T06:55:29;4.83;;;2.00;;
27209;SDS011;14721;42.668;23.386;2023-03-01T06:58:02;4.57;;;1.87;;
27209;SDS011;14721;42.668;23.386;2023-03-01T07:00:28;10.37;;;3.23;;
27209;SDS011;14721;42.668;23.386;2023-03-01T07:02:56;3.00;;;1.67;;
27209;SDS011;14721;42.668;23.386;2023-03-01T07:05:24;5.43;;;2.23;;
27209;SDS011;14721;42.668;23.386;2023-03-01T07:07:50;4.03;;;1.90;;
27209;SDS011;14721;42.668;23.386;2023-03-01T07:10:16;5.00;;;2.17;;
27209;SDS011;14721;42.668;23.386;2023-03-01T07:12:45;6.10;;;2.53;;
27209;SDS011;14721;42.668;23.386;2023-03-01T07:15:11;6.23;;;2.30;;
27209;SDS011;14721;42.668;23.386;2023-03-01T07:17:37;4.03;;;2.20;;
27209;SDS011;14721;42.668;23.386;2023-03-01T07:20:03;6.13;;;2.23;;
27209;SDS011;14721;42.668;23.386;2023-03-01T07:22:30;4.73;;;2.20;;
27209;SDS011;14721;42.668;23.386;2023-03-01T07:24:55;6.20;;;2.70;;
27209;SDS011;14721;42.668;23.386;2023-03-01T07:27:31;4.20;;;2.20;;
27209;SDS011;14721;42.668;23.386;2023-03-01T07:30:03;2.23;;;1.53;;
27209;SDS011;14721;42.668;23.386;2023-03-01T07:32:38;10.40;;;1.90;;
27209;SDS011;14721;42.668;23.386;2023-03-01T07:35:03;8.13;;;1.67;;
27209;SDS011;14721;42.668;23.386;2023-03-01T07:37:29;4.87;;;2.10;;
27209;SDS011;14721;42.668;23.386;2023-03-01T07:39:55;8.73;;;2.03;;
27209;SDS011;14721;42.668;23.386;2023-03-01T07:42:20;4.80;;;2.37;;
27209;SDS011;14721;42.668;23.386;2023-03-01T07:44:46;3.60;;;1.87;;
27209;SDS011;14721;42.668;23.386;2023-03-01T07:47:11;3.23;;;1.43;;
27209;SDS011;14721;42.668;23.386;2023-03-01T07:49:37;2.70;;;1.33;;
27209;SDS011;14721;42.668;23.386;2023-03-01T07:52:03;3.60;;;1.53;;
27209;SDS011;14721;42.668;23.386;2023-03-01T07:54:28;2.40;;;1.20;;
27209;SDS011;14721;42.668;23.386;2023-03-01T07:56:54;4.87;;;1.73;;
27209;SDS011;14721;42.668;23.386;2023-03-01T07:59:21;5.50;;;1.80;;
27209;SDS011;14721;42.668;23.386;2023-03-01T08:01:48;2.97;;;1.30;;
27209;SDS011;14721;42.668;23.386;2023-03-01T08:04:14;3.03;;;1.30;;
27209;SDS011;14721;42.668;23.386;2023-03-01T08:06:39;6.07;;;1.50;;
27209;SDS011;14721;42.668;23.386;2023-03-01T08:09:05;2.53;;;1.53;;
27209;SDS011;14721;42.668;23.386;2023-03-01T08:11:30;4.20;;;1.30;;
27209;SDS011;14721;42.668;23.386;2023-03-01T08:13:56;2.17;;;1.37;;
27209;SDS011;14721;42.668;23.386;2023-03-01T08:16:22;3.23;;;1.60;;
27209;SDS011;14721;42.668;23.386;2023-03-01T08:18:48;2.90;;;1.40;;
27209;SDS011;14721;42.668;23.386;2023-03-01T08:21:14;6.43;;;1.27;;
27209;SDS011;14721;42.668;23.386;2023-03-01T08:23:41;1.80;;;1.20;;
27209;SDS011;14721;42.668;23.386;2023-03-01T08:28:37;4.07;;;1.33;;
27209;SDS011;14721;42.668;23.386;2023-03-01T08:31:12;2.67;;;1.30;;
27209;SDS011;14721;42.668;23.386;2023-03-01T08:33:40;4.43;;;1.37;;
27209;SDS011;14721;42.668;23.386;2023-03-01T08:36:06;3.67;;;1.40;;
27209;SDS011;14721;42.668;23.386;2023-03-01T08:38:33;1.97;;;1.20;;
27209;SDS011;14721;42.668;23.386;2023-03-01T08:40:59;2.17;;;1.23;;
27209;SDS011;14721;42.668;23.386;2023-03-01T08:43:25;2.50;;;1.17;;
27209;SDS011;14721;42.668;23.386;2023-03-01T08:45:51;2.30;;;1.40;;
27209;SDS011;14721;42.668;23.386;2023-03-01T08:48:17;1.77;;;1.00;;
27209;SDS011;14721;42.668;23.386;2023-03-01T08:50:42;2.37;;;1.60;;
27209;SDS011;14721;42.668;23.386;2023-03-01T08:53:08;3.20;;;1.63;;
27209;SDS011;14721;42.668;23.386;2023-03-01T08:55:33;3.20;;;1.90;;
27209;SDS011;14721;42.668;23.386;2023-03-01T08:57:58;3.40;;;1.70;;
27209;SDS011;14721;42.668;23.386;2023-03-01T09:00:24;4.60;;;1.87;;
27209;SDS011;14721;42.668;23.386;2023-03-01T09:02:50;2.00;;;1.43;;
27209;SDS011;14721;42.668;23.386;2023-03-01T09:05:15;10.27;;;1.37;;
27209;SDS011;14721;42.668;23.386;2023-03-01T09:07:41;2.97;;;0.97;;
27209;SDS011;14721;42.668;23.386;2023-03-01T09:10:07;2.70;;;1.50;;
27209;SDS011;14721;42.668;23.386;2023-03-01T09:12:34;2.27;;;1.10;;
27209;SDS011;14721;42.668;23.386;2023-03-01T09:14:59;2.20;;;1.40;;
27209;SDS011;14721;42.668;23.386;2023-03-01T09:17:24;2.97;;;1.40;;
27209;SDS011;14721;42.668;23.386;2023-03-01T09:19:50;1.40;;;0.90;;
27209;SDS011;14721;42.668;23.386;2023-03-01T09:22:15;2.10;;;1.10;;
27209;SDS011;14721;42.668;23.386;2023-03-01T09:24:41;4.57;;;1.50;;
27209;SDS011;14721;42.668;23.386;2023-03-01T09:27:06;3.97;;;1.50;;
27209;SDS011;14721;42.668;23.386;2023-03-01T09:29:34;1.97;;;0.90;;
27209;SDS011;14721;42.668;23.386;2023-03-01T09:32:00;2.20;;;0.80;;
27209;SDS011;14721;42.668;23.386;2023-03-01T09:34:26;1.57;;;0.80;;
27209;SDS011;14721;42.668;23.386;2023-03-01T09:36:52;3.10;;;1.33;;
27209;SDS011;14721;42.668;23.386;2023-03-01T09:39:17;1.50;;;1.00;;
27209;SDS011;14721;42.668;23.386;2023-03-01T09:41:57;0.73;;;0.60;;
27209;SDS011;14721;42.668;23.386;2023-03-01T09:46:52;2.27;;;1.07;;
27209;SDS011;14721;42.668;23.386;2023-03-01T09:49:23;2.30;;;1.20;;
27209;SDS011;14721;42.668;23.386;2023-03-01T09:52:12;1.13;;;0.70;;
27209;SDS011;14721;42.668;23.386;2023-03-01T09:54:40;2.33;;;1.33;;
27209;SDS011;14721;42.668;23.386;2023-03-01T09:59:48;2.83;;;1.23;;
27209;SDS011;14721;42.668;23.386;2023-03-01T10:02:32;1.77;;;0.77;;
27209;SDS011;14721;42.668;23.386;2023-03-01T10:05:04;3.53;;;1.00;;
27209;SDS011;14721;42.668;23.386;2023-03-01T10:10:28;1.20;;;1.10;;
27209;SDS011;14721;42.668;23.386;2023-03-01T10:13:00;2.60;;;1.30;;
27209;SDS011;14721;42.668;23.386;2023-03-01T10:15:37;3.13;;;1.20;;
27209;SDS011;14721;42.668;23.386;2023-03-01T10:18:12;3.20;;;0.93;;
27209;SDS011;14721;42.668;23.386;2023-03-01T10:23:15;3.70;;;0.70;;
27209;SDS011;14721;42.668;23.386;2023-03-01T10:30:52;0.97;;;0.63;;
27209;SDS011;14721;42.668;23.386;2023-03-01T10:33:22;2.37;;;0.83;;
27209;SDS011;14721;42.668;23.386;2023-03-01T10:35:51;1.87;;;0.73;;
27209;SDS011;14721;42.668;23.386;2023-03-01T10:38:18;1.13;;;0.70;;
27209;SDS011;14721;42.668;23.386;2023-03-01T10:43:16;1.87;;;1.20;;
27209;SDS011;14721;42.668;23.386;2023-03-01T10:45:42;1.87;;;1.03;;
27209;SDS011;14721;42.668;23.386;2023-03-01T10:50:33;1.93;;;1.13;;
27209;SDS011;14721;42.668;23.386;2023-03-01T10:53:03;1.67;;;0.93;;
27209;SDS011;14721;42.668;23.386;2023-03-01T10:55:36;3.53;;;1.00;;
27209;SDS011;14721;42.668;23.386;2023-03-01T10:58:08;2.27;;;1.20;;
27209;SDS011;14721;42.668;23.386;2023-03-01T11:00:46;2.23;;;1.00;;
27209;SDS011;14721;42.668;23.386;2023-03-01T11:03:13;1.47;;;1.03;;
27209;SDS011;14721;42.668;23.386;2023-03-01T11:08:32;4.03;;;1.67;;
27209;SDS011;14721;42.668;23.386;2023-03-01T11:11:29;2.60;;;1.27;;
27209;SDS011;14721;42.668;23.386;2023-03-01T11:16:42;2.13;;;1.20;;
27209;SDS011;14721;42.668;23.386;2023-03-01T11:21:36;1.37;;;0.80;;
27209;SDS011;14721;42.668;23.386;2023-03-01T11:24:04;2.57;;;1.60;;
27209;SDS011;14721;42.668;23.386;2023-03-01T11:26:35;2.07;;;1.23;;
27209;SDS011;14721;42.668;23.386;2023-03-01T11:29:05;2.40;;;1.40;;
27209;SDS011;14721;42.668;23.386;2023-03-01T11:31:37;4.13;;;1.27;;
27209;SDS011;14721;42.668;23.386;2023-03-01T11:36:53;3.43;;;1.77;;
27209;SDS011;14721;42.668;23.386;2023-03-01T11:39:31;1.73;;;1.23;;
27209;SDS011;14721;42.668;23.386;2023-03-01T11:42:06;1.20;;;0.97;;
27209;SDS011;14721;42.668;23.386;2023-03-01T11:44:38;2.40;;;1.43;;
27209;SDS011;14721;42.668;23.386;2023-03-01T11:47:22;3.63;;;1.50;;
27209;SDS011;14721;42.668;23.386;2023-03-01T12:08:37;3.97;;;2.00;;
27209;SDS011;14721;42.668;23.386;2023-03-01T12:14:12;4.77;;;2.27;;
27209;SDS011;14721;42.668;23.386;2023-03-01T12:20:05;3.67;;;1.93;;
27209;SDS011;14721;42.668;23.386;2023-03-01T12:25:48;4.17;;;2.17;;
27209;SDS011;14721;42.668;23.386;2023-03-01T12:52:57;3.50;;;2.20;;
27209;SDS011;14721;42.668;23.386;2023-03-01T12:55:29;5.43;;;2.13;;
27209;SDS011;14721;42.668;23.386;2023-03-01T12:58:09;4.23;;;2.07;;
27209;SDS011;14721;42.668;23.386;2023-03-01T13:06:19;4.33;;;2.23;;
27209;SDS011;14721;42.668;23.386;2023-03-01T13:11:28;5.63;;;2.63;;
27209;SDS011;14721;42.668;23.386;2023-03-01T13:16:45;3.80;;;1.50;;
27209;SDS011;14721;42.668;23.386;2023-03-01T13:19:17;3.33;;;1.50;;
27209;SDS011;14721;42.668;23.386;2023-03-01T13:21:45;3.77;;;1.70;;
27209;SDS011;14721;42.668;23.386;2023-03-01T13:29:45;3.13;;;1.37;;
27209;SDS011;14721;42.668;23.386;2023-03-01T13:32:25;4.03;;;1.30;;
27209;SDS011;14721;42.668;23.386;2023-03-01T13:37:43;3.20;;;1.87;;
27209;SDS011;14721;42.668;23.386;2023-03-01T13:42:44;8.00;;;2.20;;
27209;SDS011;14721;42.668;23.386;2023-03-01T13:45:36;4.70;;;1.53;;
27209;SDS011;14721;42.668;23.386;2023-03-01T13:48:15;4.10;;;1.73;;
27209;SDS011;14721;42.668;23.386;2023-03-01T13:50:47;4.50;;;1.63;;
27209;SDS011;14721;42.668;23.386;2023-03-01T13:53:21;4.10;;;1.60;;
27209;SDS011;14721;42.668;23.386;2023-03-01T13:56:36;6.23;;;2.20;;
27209;SDS011;14721;42.668;23.386;2023-03-01T13:58:55;7.50;;;2.27;;
27209;SDS011;14721;42.668;23.386;2023-03-01T14:03:52;3.73;;;1.97;;
27209;SDS011;14721;42.668;23.386;2023-03-01T14:09:00;3.77;;;1.90;;
27209;SDS011;14721;42.668;23.386;2023-03-01T14:14:34;4.40;;;2.10;;
27209;SDS011;14721;42.668;23.386;2023-03-01T14:19:45;3.67;;;1.77;;
27209;SDS011;14721;42.668;23.386;2023-03-01T14:22:28;4.20;;;1.60;;
27209;SDS011;14721;42.668;23.386;2023-03-01T14:27:41;5.23;;;2.33;;
27209;SDS011;14721;42.668;23.386;2023-03-01T14:32:58;8.60;;;2.10;;
27209;SDS011;14721;42.668;23.386;2023-03-01T14:35:34;5.03;;;1.63;;
27209;SDS011;14721;42.668;23.386;2023-03-01T14:38:01;3.70;;;1.73;;
27209;SDS011;14721;42.668;23.386;2023-03-01T14:40:31;3.00;;;1.50;;
27209;SDS011;14721;42.668;23.386;2023-03-01T14:43:00;3.03;;;1.50;;
27209;SDS011;14721;42.668;23.386;2023-03-01T14:45:33;6.20;;;1.70;;
27209;SDS011;14721;42.668;23.386;2023-03-01T14:47:59;3.63;;;1.60;;
27209;SDS011;14721;42.668;23.386;2023-03-01T14:50:31;4.97;;;1.87;;
27209;SDS011;14721;42.668;23.386;2023-03-01T14:52:59;5.87;;;1.80;;
27209;SDS011;14721;42.668;23.386;2023-03-01T14:55:37;4.40;;;1.80;;
27209;SDS011;14721;42.668;23.386;2023-03-01T14:58:09;4.60;;;1.80;;
27209;SDS011;14721;42.668;23.386;2023-03-01T15:00:37;5.00;;;1.60;;
27209;SDS011;14721;42.668;23.386;2023-03-01T15:03:14;6.43;;;1.97;;
27209;SDS011;14721;42.668;23.386;2023-03-01T15:05:51;3.37;;;1.40;;
27209;SDS011;14721;42.668;23.386;2023-03-01T15:08:19;5.70;;;2.07;;
27209;SDS011;14721;42.668;23.386;2023-03-01T15:11:48;3.97;;;1.63;;
27209;SDS011;14721;42.668;23.386;2023-03-01T15:13:56;1.70;;;1.10;;
27209;SDS011;14721;42.668;23.386;2023-03-01T15:16:23;4.43;;;1.97;;
27209;SDS011;14721;42.668;23.386;2023-03-01T15:19:15;3.53;;;1.10;;
27209;SDS011;14721;42.668;23.386;2023-03-01T15:21:48;7.60;;;1.77;;
27209;SDS011;14721;42.668;23.386;2023-03-01T15:24:20;4.10;;;2.13;;
27209;SDS011;14721;42.668;23.386;2023-03-01T15:26:52;4.33;;;1.47;;
27209;SDS011;14721;42.668;23.386;2023-03-01T15:29:24;5.70;;;2.03;;
27209;SDS011;14721;42.668;23.386;2023-03-01T15:32:06;5.67;;;1.73;;
27209;SDS011;14721;42.668;23.386;2023-03-01T15:34:47;5.40;;;1.90;;
27209;SDS011;14721;42.668;23.386;2023-03-01T15:43:36;10.53;;;2.13;;
27209;SDS011;14721;42.668;23.386;2023-03-01T15:46:03;10.60;;;2.77;;
27209;SDS011;14721;42.668;23.386;2023-03-01T15:48:29;3.20;;;2.17;;
27209;SDS011;14721;42.668;23.386;2023-03-01T15:50:59;7.23;;;2.40;;
27209;SDS011;14721;42.668;23.386;2023-03-01T15:53:26;9.40;;;3.20;;
27209;SDS011;14721;42.668;23.386;2023-03-01T15:55:53;9.27;;;3.20;;
27209;SDS011;14721;42.668;23.386;2023-03-01T15:58:20;9.13;;;2.87;;
27209;SDS011;14721;42.668;23.386;2023-03-01T16:00:49;5.73;;;2.10;;
27209;SDS011;14721;42.668;23.386;2023-03-01T16:03:21;8.07;;;2.60;;
27209;SDS011;14721;42.668;23.386;2023-03-01T16:05:48;6.80;;;2.87;;
27209;SDS011;14721;42.668;23.386;2023-03-01T16:08:15;7.33;;;2.60;;
27209;SDS011;14721;42.668;23.386;2023-03-01T16:10:41;7.33;;;2.87;;
27209;SDS011;14721;42.668;23.386;2023-03-01T16:13:14;12.00;;;4.13;;
27209;SDS011;14721;42.668;23.386;2023-03-01T16:15:40;4.73;;;2.60;;
27209;SDS011;14721;42.668;23.386;2023-03-01T16:18:06;7.20;;;2.90;;
27209;SDS011;14721;42.668;23.386;2023-03-01T16:20:32;6.23;;;3.03;;
27209;SDS011;14721;42.668;23.386;2023-03-01T16:23:02;5.80;;;3.10;;
27209;SDS011;14721;42.668;23.386;2023-03-01T16:25:31;4.53;;;2.60;;
27209;SDS011;14721;42.668;23.386;2023-03-01T16:27:57;4.33;;;2.33;;
27209;SDS011;14721;42.668;23.386;2023-03-01T16:30:25;5.30;;;2.27;;
27209;SDS011;14721;42.668;23.386;2023-03-01T16:32:52;7.00;;;2.57;;
27209;SDS011;14721;42.668;23.386;2023-03-01T16:35:19;6.13;;;2.33;;
27209;SDS011;14721;42.668;23.386;2023-03-01T16:37:46;7.30;;;3.03;;
27209;SDS011;14721;42.668;23.386;2023-03-01T16:40:16;5.30;;;2.20;;
27209;SDS011;14721;42.668;23.386;2023-03-01T16:42:46;6.17;;;2.50;;
27209;SDS011;14721;42.668;23.386;2023-03-01T16:45:13;4.40;;;2.23;;
27209;SDS011;14721;42.668;23.386;2023-03-01T16:47:38;4.67;;;2.57;;
27209;SDS011;14721;42.668;23.386;2023-03-01T16:50:04;8.50;;;2.63;;
27209;SDS011;14721;42.668;23.386;2023-03-01T16:52:30;7.23;;;3.17;;
27209;SDS011;14721;42.668;23.386;2023-03-01T16:54:55;5.40;;;3.13;;
27209;SDS011;14721;42.668;23.386;2023-03-01T16:57:21;5.90;;;2.80;;
27209;SDS011;14721;42.668;23.386;2023-03-01T16:59:46;4.60;;;2.50;;
27209;SDS011;14721;42.668;23.386;2023-03-01T17:02:12;7.23;;;2.70;;
27209;SDS011;14721;42.668;23.386;2023-03-01T17:04:40;3.33;;;2.10;;
27209;SDS011;14721;42.668;23.386;2023-03-01T17:07:06;4.40;;;2.30;;
27209;SDS011;14721;42.668;23.386;2023-03-01T17:09:35;5.53;;;2.53;;